Terminal Aerodrome Forecast
Issued by NWS Charleston, SC

Home | Current Version | Previous Version | Text Only | Print | Product List | Glossary On
Versions: 1 2 3 4 5 6 7 8 9 10 11 12 13 14 15 16 17 18 19 20 21 22 23 24 25 26 27 28 29 30 31 32
071
FTUS42 KCHS 032327
TAFSAV
TAF
KSAV 032327Z 0400/0424 24008KT P6SM VCTS SCT035CB BKN060
      TEMPO 0400/0403 26020G35KT 3SM +TSRA BR SCT015 BKN035CB
     FM040400 23006KT P6SM VCSH FEW015 SCT035 BKN080
     FM041200 28010KT P6SM SCT015 BKN050=

USA.gov is the U.S. government's official web portal to all federal, state and local government web resources and services.